Soaring Guidance
Issued by NWS Reno, NV

Home | Current Version | Previous Version | Text Only | Print | Product List | Glossary On
Versions: 1 2 3 4 5 6 7 8 9 10 11
000
UXUS97 KREV 041346
SRGREV

SOARING FORECAST
NATIONAL WEATHER SERVICE - RENO NV
700 AM PDT SAT JUL 4 2015

THIS SOARING FORECAST IS FOR THE EASTERN SIERRA AND WESTERN NEVADA
WITH SPECIFIC INDICES FOR THE GREATER RENO AREA.

THIS FORECAST IS PREPARED DAILY BY 700 AM AND IS NOT UPDATED.

FOR CURRENT FLIGHT CONDITIONS...FORECASTS...AND ADVISORIES...ACCESS
YOUR LOCAL BRIEFING OUTLET OR FLIGHT SERVICE STATION.

*******************************************************************
FORECASTED LOCAL INDICES FOR RENO:        TODAY     YESTERDAY
FORECASTED MAX TEMP AT RENO (DEG F).....     94         102
FORECASTED TRIGGER TEMPERATURE (DEG F)..     82          84
   EXCEEDED YESTERDAY BY 1055 AM PDT
FORECASTED MAXIMUM ALTITUDE (FT MSL)....  16000       15500
FORECASTED SOARING INDEX (FPM)..........    990         945
FORECASTED K-INDEX.........VALID 18Z....     28          33
FORECASTED K-INDEX.........VALID 00Z....     34          41
FORECASTED LIFTED INDEX....VALID 18Z....      2           1
FORECASTED LIFTED INDEX....VALID 00Z....     -2          -2

AFTERNOON WINDS ALOFT FORECAST
MSL (FT) WIND/TEMP
9000  9900/+17
10000 9900/+14
12000 9900/+08
14000 9901/+03
16000 9903/-02
18000 11 7/-07
24000 1417/-18
30000 1440/-33
34000 1444/-44
39000 1443/-56

SLIDE MOUNTAIN DATA:
     DATE       TIME     TEMP  DEWPT   RH         WIND (MPH)
                        (F)   (F)           | DIR  SPEED GUST
2015-07-04    01:20      58    43     59    | 036    2    5
2015-07-04    01:00      58    44     60    | 050    2    4
2015-07-04    00:50      57    42     58    | 340    0    0
2015-07-04    00:30      58    43     60    | 301    0    0

RENO TAF FORECAST:
KRNO 041126Z 0412/0512 VRB04KT P6SM SCT200
     FM041900 20005KT P6SM FEW090 SCT140
     FM042200 23008KT P6SM VCTS SCT090CB BKN140
     FM050100 32010KT P6SM VCSH BKN080 BKN120
     FM050600 VRB04KT P6SM SCT120 BKN200

CARSON CITY TAF FORECAST:
KCXP 041126Z 0412/0512 VRB04KT P6SM SCT200
     FM041800 12005KT P6SM FEW090 SCT140
     FM042100 23008KT P6SM VCTS SCT080CB BKN140
     FM050100 26010KT P6SM VCSH BKN070 BKN120
     FM050400 30008KT P6SM SCT070 BKN120
     FM050700 VRB04KT P6SM SCT120 BKN200

OUTLOOK FOR THE RENO-CARSON CITY-MINDEN AREA:
.SUNDAY...PARTLY CLOUDY. ISOLATED SHOWERS AND THUNDERSTORMS IN
THE AFTERNOON. HIGHS 90 TO 95. LIGHT WINDS BECOMING SOUTHWEST
AROUND 10 MPH IN THE AFTERNOON.

SUNRISE AND SUNSET
JULY  4 2015..........SUNRISE   537 AM PDT   SUNSET   830 PM PDT
JULY  5 2015..........SUNRISE   538 AM PDT   SUNSET   830 PM PDT



USA.gov is the U.S. government's official web portal to all federal, state and local government web resources and services.